createdAt,value
2022-08-26T00:02:17.408Z,9.70
2022-08-26T00:04:51.259Z,8.80
2022-08-26T00:07:20.466Z,9.02
2022-08-26T00:09:48.692Z,9.00
2022-08-26T00:12:19.615Z,8.57
2022-08-26T00:15:04.721Z,9.10
2022-08-26T00:17:32.827Z,8.85
2022-08-26T00:20:01.143Z,8.57
2022-08-26T00:22:29.362Z,9.80
2022-08-26T00:24:57.518Z,9.07
2022-08-26T00:27:27.053Z,9.50
2022-08-26T00:29:56.243Z,10.13
2022-08-26T00:32:25.069Z,9.38
2022-08-26T00:34:54.334Z,9.32
2022-08-26T00:37:25.698Z,9.80
2022-08-26T00:39:54.821Z,9.00
2022-08-26T00:42:27.654Z,9.40
2022-08-26T00:44:56.567Z,9.52
2022-08-26T00:47:30.999Z,9.05
2022-08-26T00:50:00.866Z,9.70
2022-08-26T00:52:29.888Z,9.30
2022-08-26T00:55:05.263Z,8.77
2022-08-26T00:57:36.773Z,9.55
2022-08-26T01:00:09.999Z,9.55
2022-08-26T01:02:46.894Z,9.05
2022-08-26T01:05:16.897Z,10.23
2022-08-26T01:07:45.465Z,8.45
2022-08-26T01:10:17.988Z,8.80
2022-08-26T01:12:51.038Z,9.52
2022-08-26T01:15:23.979Z,8.52
2022-08-26T01:17:54.455Z,9.40
2022-08-26T01:20:30.315Z,9.55
2022-08-26T01:23:03.205Z,10.57
2022-08-26T01:25:34.555Z,10.30
2022-08-26T01:28:06.886Z,9.95
2022-08-26T01:30:36.652Z,11.73
2022-08-26T01:33:10.063Z,10.00
2022-08-26T01:35:44.379Z,9.77
2022-08-26T01:38:16.834Z,10.35
2022-08-26T01:40:48.009Z,10.60
2022-08-26T01:43:24.010Z,11.73
2022-08-26T01:45:54.695Z,11.65
2022-08-26T01:48:27.514Z,10.45
2022-08-26T01:50:58.440Z,11.48
2022-08-26T01:53:32.929Z,11.50
2022-08-26T01:56:05.260Z,10.73
2022-08-26T01:58:39.711Z,10.30
2022-08-26T02:01:09.703Z,10.95
2022-08-26T02:03:51.453Z,12.10
2022-08-26T02:06:22.140Z,11.27
2022-08-26T02:08:55.312Z,11.38
2022-08-26T02:11:23.976Z,11.40
2022-08-26T02:13:59.755Z,10.73
2022-08-26T02:16:29.742Z,11.27
2022-08-26T02:19:02.430Z,10.88
2022-08-26T02:21:32.099Z,10.63
2022-08-26T02:24:11.433Z,12.83
2022-08-26T02:26:40.991Z,11.30
2022-08-26T02:29:17.633Z,10.93
2022-08-26T02:31:45.832Z,11.43
2022-08-26T02:34:16.160Z,10.77
2022-08-26T02:36:44.497Z,11.95
2022-08-26T02:39:18.004Z,10.90
2022-08-26T02:41:52.873Z,10.80
2022-08-26T02:44:21.066Z,11.65
2022-08-26T02:46:49.266Z,11.38
2022-08-26T02:49:20.654Z,11.30
2022-08-26T02:51:49.765Z,11.83
2022-08-26T02:54:21.824Z,11.98
2022-08-26T02:56:50.755Z,12.80
2022-08-26T02:59:24.404Z,12.40
2022-08-26T03:01:53.202Z,11.38
2022-08-26T03:04:26.420Z,13.10
2022-08-26T03:06:55.301Z,11.90
2022-08-26T03:09:25.373Z,11.77
2022-08-26T03:11:56.056Z,11.80
2022-08-26T03:14:27.114Z,12.75
2022-08-26T03:16:55.429Z,12.37
2022-08-26T03:19:25.046Z,12.40
2022-08-26T03:21:57.959Z,13.03
2022-08-26T03:24:28.062Z,11.77
2022-08-26T03:26:56.851Z,12.07
2022-08-26T03:29:45.113Z,12.85
2022-08-26T03:32:17.827Z,13.40
2022-08-26T03:34:48.679Z,12.87
2022-08-26T03:37:20.903Z,15.67
2022-08-26T03:39:51.044Z,13.43
2022-08-26T03:42:22.091Z,14.63
2022-08-26T03:44:53.276Z,13.63
2022-08-26T03:47:21.948Z,15.23
2022-08-26T03:49:50.220Z,15.40
2022-08-26T03:52:22.486Z,14.77
2022-08-26T03:54:52.221Z,22.70
2022-08-26T03:57:20.746Z,21.33
2022-08-26T03:59:50.368Z,18.33
2022-08-26T04:02:19.927Z,20.43
2022-08-26T04:04:48.349Z,20.07
2022-08-26T04:07:16.537Z,20.27
2022-08-26T04:09:48.556Z,20.63
2022-08-26T04:12:18.196Z,20.60
2022-08-26T04:14:46.549Z,20.43
2022-08-26T04:17:15.757Z,23.97
2022-08-26T04:19:44.880Z,24.13
2022-08-26T04:22:13.736Z,21.73
2022-08-26T04:24:44.500Z,21.80
2022-08-26T04:27:14.139Z,21.03
2022-08-26T04:29:46.185Z,23.53
2022-08-26T04:32:18.419Z,21.40
2022-08-26T04:34:46.637Z,24.23
2022-08-26T04:37:14.830Z,27.33
2022-08-26T04:39:43.057Z,25.43
2022-08-26T04:42:13.882Z,28.43
2022-08-26T04:44:43.430Z,29.73
2022-08-26T04:47:11.811Z,28.00
2022-08-26T04:49:40.077Z,28.77
2022-08-26T04:52:13.077Z,34.07
2022-08-26T04:54:42.016Z,28.90
2022-08-26T04:57:12.997Z,30.77
2022-08-26T04:59:45.237Z,34.80
2022-08-26T05:02:14.360Z,35.17
2022-08-26T05:04:44.986Z,35.13
2022-08-26T05:07:13.245Z,39.57
2022-08-26T05:09:42.201Z,39.17
2022-08-26T05:12:10.731Z,36.80
2022-08-26T05:14:39.275Z,41.77
2022-08-26T05:17:09.257Z,45.73
2022-08-26T05:19:43.280Z,46.40
2022-08-26T05:22:13.075Z,44.80
2022-08-26T05:24:41.555Z,42.50
2022-08-26T05:27:11.734Z,43.80
2022-08-26T05:29:40.669Z,47.60
2022-08-26T05:32:11.221Z,45.00
2022-08-26T05:34:39.590Z,48.20
2022-08-26T05:37:13.771Z,48.47
2022-08-26T05:39:51.215Z,50.83
2022-08-26T05:42:21.991Z,51.93
2022-08-26T05:44:55.675Z,46.57
2022-08-26T05:47:26.443Z,51.27
2022-08-26T05:49:57.458Z,46.13
2022-08-26T05:52:26.156Z,45.63
2022-08-26T05:54:54.372Z,48.77
2022-08-26T05:57:23.200Z,50.47
2022-08-26T05:59:52.242Z,47.00
2022-08-26T06:02:20.956Z,40.80
2022-08-26T06:04:50.761Z,46.00
2022-08-26T06:07:43.028Z,43.77
2022-08-26T06:10:31.458Z,48.50
2022-08-26T06:13:09.127Z,45.80
2022-08-26T06:15:42.959Z,51.50
2022-08-26T06:18:14.505Z,46.90
2022-08-26T06:20:57.407Z,46.77
2022-08-26T06:23:46.016Z,43.57
2022-08-26T06:26:14.756Z,42.20
2022-08-26T06:28:45.583Z,42.40
2022-08-26T06:31:16.583Z,40.70
2022-08-26T06:33:45.406Z,39.00
2022-08-26T06:36:19.405Z,39.87
2022-08-26T06:38:48.614Z,41.00
2022-08-26T06:41:18.166Z,42.93
2022-08-26T06:43:46.306Z,41.33
2022-08-26T06:46:19.607Z,40.60
2022-08-26T06:48:48.067Z,42.83
2022-08-26T06:51:23.824Z,41.73
2022-08-26T06:53:54.077Z,35.40
2022-08-26T06:56:25.072Z,34.97
2022-08-26T06:58:56.579Z,37.67
2022-08-26T07:01:27.470Z,42.08
2022-08-26T07:04:00.170Z,37.70
2022-08-26T07:06:29.910Z,37.43
2022-08-26T07:09:04.083Z,36.07
2022-08-26T07:11:33.267Z,35.07
2022-08-26T07:14:04.439Z,34.23
2022-08-26T07:16:32.846Z,37.23
2022-08-26T07:19:03.417Z,37.10
2022-08-26T07:21:41.702Z,34.80
2022-08-26T07:24:11.157Z,43.93
2022-08-26T07:26:43.001Z,36.63
2022-08-26T07:29:12.427Z,43.73
2022-08-26T07:31:42.863Z,40.67
2022-08-26T07:34:13.619Z,40.17
2022-08-26T07:36:43.389Z,39.43
2022-08-26T07:39:11.588Z,38.20
2022-08-26T07:41:39.847Z,41.27
2022-08-26T07:44:08.746Z,40.80
2022-08-26T07:46:38.340Z,39.38
2022-08-26T07:49:06.833Z,38.90
2022-08-26T07:51:38.217Z,39.53
2022-08-26T07:54:08.235Z,37.67
2022-08-26T07:56:36.595Z,39.90
2022-08-26T07:59:13.651Z,36.90
2022-08-26T08:01:45.083Z,34.58
2022-08-26T08:04:19.410Z,36.65
2022-08-26T08:06:56.691Z,36.05
2022-08-26T08:09:26.408Z,36.80
2022-08-26T08:11:55.631Z,37.50
2022-08-26T08:14:23.895Z,34.93
2022-08-26T08:16:54.853Z,38.73
2022-08-26T08:19:27.672Z,38.20
2022-08-26T08:22:05.271Z,35.45
2022-08-26T08:24:49.677Z,38.22
2022-08-26T08:27:23.838Z,38.28
2022-08-26T08:29:55.719Z,37.70
2022-08-26T08:32:24.906Z,36.15
2022-08-26T08:34:56.513Z,35.75
2022-08-26T08:37:24.875Z,33.88
2022-08-26T08:39:54.541Z,35.80
2022-08-26T08:42:43.702Z,32.80
2022-08-26T08:45:16.877Z,36.20
2022-08-26T08:47:51.377Z,33.40
2022-08-26T08:50:27.098Z,35.83
2022-08-26T08:53:09.296Z,35.60
2022-08-26T08:55:59.437Z,41.90
2022-08-26T08:58:43.674Z,33.92
2022-08-26T09:01:20.985Z,36.70
2022-08-26T09:03:56.897Z,31.27
2022-08-26T09:06:27.689Z,35.08
2022-08-26T09:08:58.609Z,32.80
2022-08-26T09:11:28.354Z,32.38
2022-08-26T09:13:57.756Z,34.63
2022-08-26T09:16:38.390Z,34.65
2022-08-26T09:19:19.176Z,32.38
2022-08-26T09:21:55.537Z,31.30
2022-08-26T09:24:28.419Z,34.42
2022-08-26T09:26:59.184Z,32.75
2022-08-26T09:29:30.523Z,33.67
2022-08-26T09:32:16.326Z,30.33
2022-08-26T09:34:56.319Z,27.73
2022-08-26T09:37:37.536Z,28.52
2022-08-26T09:40:27.043Z,27.90
2022-08-26T09:43:22.703Z,26.95
2022-08-26T09:45:59.513Z,25.00
2022-08-26T09:48:32.459Z,29.50
2022-08-26T09:51:06.925Z,25.67
2022-08-26T09:53:38.640Z,24.55
2022-08-26T09:56:16.589Z,28.40
2022-08-26T09:58:48.277Z,26.60
2022-08-26T10:01:26.277Z,25.58
2022-08-26T10:04:06.728Z,25.65
2022-08-26T10:06:40.219Z,26.83
2022-08-26T10:09:14.792Z,24.65
2022-08-26T10:11:47.299Z,25.23
2022-08-26T10:14:24.412Z,24.05
2022-08-26T10:16:58.575Z,25.90
2022-08-26T10:19:55.957Z,23.10
2022-08-26T10:22:32.685Z,24.95
2022-08-26T10:25:04.798Z,23.70
2022-08-26T10:27:49.728Z,25.15
2022-08-26T10:30:23.433Z,23.70
2022-08-26T10:32:56.787Z,27.45
2022-08-26T10:35:28.520Z,26.60
2022-08-26T10:37:59.736Z,23.52
2022-08-26T10:40:38.636Z,27.35
2022-08-26T10:43:11.386Z,24.25
2022-08-26T10:45:48.925Z,23.58
2022-08-26T10:48:22.306Z,21.42
2022-08-26T10:50:51.445Z,25.83
2022-08-26T10:53:26.540Z,22.75
2022-08-26T10:56:03.975Z,27.17
2022-08-26T10:58:55.921Z,20.05
2022-08-26T11:01:43.360Z,25.17
2022-08-26T11:04:28.844Z,19.80
2022-08-26T11:07:32.244Z,19.48
2022-08-26T11:10:06.753Z,24.90
2022-08-26T11:12:55.303Z,18.92
2022-08-26T11:16:01.088Z,22.20
2022-08-26T11:18:46.989Z,18.80
2022-08-26T11:21:53.687Z,20.33
2022-08-26T11:25:01.370Z,20.50
2022-08-26T11:28:02.717Z,19.98
2022-08-26T11:30:56.870Z,18.77
2022-08-26T11:33:56.991Z,19.13
2022-08-26T11:36:45.401Z,20.23
2022-08-26T11:39:21.278Z,19.27
2022-08-26T11:41:52.644Z,16.35
2022-08-26T11:44:27.422Z,21.48
2022-08-26T11:46:58.120Z,16.30
2022-08-26T11:49:29.133Z,15.95
2022-08-26T11:52:11.348Z,17.05
2022-08-26T11:54:42.284Z,17.05
2022-08-26T11:57:14.389Z,16.17
2022-08-26T11:59:45.797Z,18.42
2022-08-26T12:02:19.101Z,15.75
2022-08-26T12:04:51.526Z,16.00
2022-08-26T12:07:24.804Z,16.50
2022-08-26T12:09:56.518Z,18.95
2022-08-26T12:12:35.167Z,14.60
2022-08-26T12:15:16.168Z,13.88
2022-08-26T12:17:45.530Z,16.20
2022-08-26T12:20:45.936Z,14.57
2022-08-26T12:23:25.541Z,13.15
2022-08-26T12:26:03.977Z,12.30
2022-08-26T12:28:34.610Z,16.80
2022-08-26T12:31:07.610Z,18.08
2022-08-26T12:33:37.000Z,13.82
2022-08-26T12:36:07.725Z,10.75
2022-08-26T12:38:40.418Z,17.67
2022-08-26T12:41:08.842Z,12.85
2022-08-26T12:43:40.335Z,13.75
2022-08-26T12:46:10.107Z,13.63
2022-08-26T12:48:42.630Z,9.70
2022-08-26T12:51:29.788Z,11.00
2022-08-26T12:53:59.234Z,13.20
2022-08-26T12:56:36.395Z,11.40
2022-08-26T12:59:20.398Z,14.52
2022-08-26T13:01:51.400Z,9.10
2022-08-26T13:04:41.430Z,12.48
2022-08-26T13:07:26.362Z,12.50
2022-08-26T13:09:58.599Z,9.73
2022-08-26T13:12:32.010Z,13.57
2022-08-26T13:15:03.680Z,9.48
2022-08-26T13:17:35.884Z,9.55
2022-08-26T13:20:08.007Z,9.43
2022-08-26T13:22:38.273Z,15.10
2022-08-26T13:25:09.507Z,10.13
2022-08-26T13:27:37.748Z,12.43
2022-08-26T13:30:06.667Z,11.05
2022-08-26T13:32:36.361Z,12.95
2022-08-26T13:35:06.608Z,9.80
2022-08-26T13:37:38.437Z,10.65
2022-08-26T13:40:14.364Z,13.35
2022-08-26T13:42:49.632Z,15.32
2022-08-26T13:45:18.453Z,9.57
2022-08-26T13:47:49.047Z,13.02
2022-08-26T13:50:19.727Z,11.32
2022-08-26T13:52:49.315Z,10.98
2022-08-26T13:55:17.847Z,10.57
2022-08-26T13:57:46.138Z,11.38
2022-08-26T14:00:15.875Z,8.35
2022-08-26T14:02:44.070Z,10.38
2022-08-26T14:05:15.000Z,12.20
2022-08-26T14:07:46.302Z,9.65
2022-08-26T14:10:16.004Z,10.25
2022-08-26T14:12:45.691Z,8.30
2022-08-26T14:15:18.537Z,9.15
2022-08-26T14:17:50.705Z,8.40
2022-08-26T14:20:23.558Z,9.50
2022-08-26T14:23:12.595Z,11.52
2022-08-26T14:25:41.642Z,11.38
2022-08-26T14:28:14.380Z,9.90
2022-08-26T14:30:44.432Z,9.90
2022-08-26T14:33:14.979Z,11.63
2022-08-26T14:35:48.824Z,7.65
2022-08-26T14:38:20.045Z,11.40
2022-08-26T14:40:49.650Z,8.85
2022-08-26T14:43:20.208Z,7.93
2022-08-26T14:45:50.490Z,12.00
2022-08-26T14:48:20.978Z,7.38
2022-08-26T14:50:51.595Z,9.35
2022-08-26T14:53:37.214Z,12.70
2022-08-26T14:56:07.089Z,7.88
2022-08-26T14:58:37.713Z,7.10
2022-08-26T15:01:08.189Z,11.70
2022-08-26T15:03:36.509Z,7.85
2022-08-26T15:06:08.448Z,8.90
2022-08-26T15:08:37.372Z,7.88
2022-08-26T15:11:07.213Z,9.57
2022-08-26T15:13:35.680Z,8.52
2022-08-26T15:16:04.446Z,10.65
2022-08-26T15:18:32.756Z,9.38
2022-08-26T15:21:00.962Z,9.85
2022-08-26T15:23:29.202Z,11.90
2022-08-26T15:25:57.554Z,8.48
2022-08-26T15:28:29.690Z,8.35
2022-08-26T15:30:57.923Z,6.53
2022-08-26T15:33:26.146Z,8.10
2022-08-26T15:35:54.680Z,6.85
2022-08-26T15:38:25.175Z,13.55
2022-08-26T15:40:57.787Z,8.57
2022-08-26T15:43:32.974Z,9.20
2022-08-26T15:46:04.732Z,9.77
2022-08-26T15:48:32.980Z,7.32
2022-08-26T15:51:03.493Z,7.88
2022-08-26T15:53:34.447Z,7.45
2022-08-26T15:56:02.924Z,11.85
2022-08-26T15:58:35.332Z,8.45
2022-08-26T16:01:04.762Z,7.63
2022-08-26T16:03:32.905Z,9.93
2022-08-26T16:06:03.816Z,10.25
2022-08-26T16:08:36.459Z,9.70
2022-08-26T16:11:07.430Z,9.85
2022-08-26T16:13:39.940Z,11.45
2022-08-26T16:16:09.003Z,9.95
2022-08-26T16:18:39.907Z,7.10
2022-08-26T16:21:13.507Z,10.65
2022-08-26T16:23:45.152Z,9.93
2022-08-26T16:26:17.776Z,7.55
2022-08-26T16:28:47.530Z,5.95
2022-08-26T16:31:18.628Z,9.85
2022-08-26T16:33:47.258Z,11.50
2022-08-26T16:36:18.269Z,7.32
2022-08-26T16:38:50.196Z,10.30
2022-08-26T16:41:21.179Z,9.50
2022-08-26T16:43:53.293Z,7.90
2022-08-26T16:46:25.739Z,5.90
2022-08-26T16:48:58.083Z,6.43
2022-08-26T16:51:28.202Z,7.90
2022-08-26T16:53:58.077Z,8.85
2022-08-26T16:56:34.025Z,6.65
2022-08-26T16:59:04.468Z,7.07
2022-08-26T17:01:32.855Z,7.90
2022-08-26T17:04:01.193Z,6.57
2022-08-26T17:06:29.677Z,5.78
2022-08-26T17:08:58.057Z,9.00
2022-08-26T17:11:26.220Z,7.90
2022-08-26T17:13:54.451Z,9.35
2022-08-26T17:16:26.897Z,8.10
2022-08-26T17:18:58.753Z,6.45
2022-08-26T17:21:30.353Z,8.45
2022-08-26T17:23:58.762Z,6.32
2022-08-26T17:26:27.249Z,6.35
2022-08-26T17:28:55.890Z,5.35
2022-08-26T17:31:27.842Z,9.75
2022-08-26T17:33:56.754Z,12.77
2022-08-26T17:36:27.633Z,4.72
2022-08-26T17:38:57.324Z,5.57
2022-08-26T17:41:28.845Z,5.25
2022-08-26T17:44:02.792Z,6.07
2022-08-26T17:46:36.494Z,6.90
2022-08-26T17:49:09.983Z,6.00
2022-08-26T17:51:41.414Z,5.35
2022-08-26T17:54:12.334Z,5.63
2022-08-26T17:56:40.594Z,4.07
2022-08-26T17:59:12.055Z,7.43
2022-08-26T18:01:44.710Z,3.33
2022-08-26T18:04:15.234Z,5.53
2022-08-26T18:06:44.506Z,6.72
2022-08-26T18:09:15.337Z,4.78
2022-08-26T18:11:43.750Z,7.25
2022-08-26T18:14:14.238Z,7.57
2022-08-26T18:16:42.444Z,4.53
2022-08-26T18:19:12.831Z,6.30
2022-08-26T18:21:43.796Z,6.93
2022-08-26T18:24:13.987Z,5.97
2022-08-26T18:26:48.013Z,8.23
2022-08-26T18:29:18.124Z,9.13
2022-08-26T18:31:46.617Z,5.78
2022-08-26T18:34:19.698Z,6.35
2022-08-26T18:36:48.536Z,5.97
2022-08-26T18:39:22.188Z,6.40
2022-08-26T18:41:53.316Z,5.10
2022-08-26T18:44:24.298Z,7.60
2022-08-26T18:46:53.427Z,6.33
2022-08-26T18:49:23.680Z,11.77
2022-08-26T18:51:54.765Z,4.97
2022-08-26T18:54:25.792Z,7.00
2022-08-26T18:56:54.349Z,3.40
2022-08-26T18:59:29.655Z,7.53
2022-08-26T19:01:59.203Z,6.40
2022-08-26T19:04:31.215Z,8.30
2022-08-26T19:06:59.692Z,7.13
2022-08-26T19:09:28.447Z,6.18
2022-08-26T19:14:31.143Z,5.57
2022-08-26T19:17:02.649Z,5.67
2022-08-26T19:19:34.665Z,9.07
2022-08-26T19:22:05.435Z,6.00
2022-08-26T19:24:38.525Z,6.83
2022-08-26T19:27:07.392Z,7.77
2022-08-26T19:29:37.819Z,6.50
2022-08-26T19:32:08.722Z,7.13
2022-08-26T19:34:40.711Z,5.93
2022-08-26T19:37:09.080Z,8.33
2022-08-26T19:39:37.427Z,7.43
2022-08-26T19:42:06.075Z,6.53
2022-08-26T19:44:54.106Z,6.13
2022-08-26T19:47:23.134Z,9.37
2022-08-26T19:49:55.953Z,8.73
2022-08-26T19:52:30.222Z,4.93
2022-08-26T19:55:02.218Z,4.90
2022-08-26T19:57:32.781Z,6.10
2022-08-26T20:00:01.232Z,6.03
2022-08-26T20:02:30.457Z,7.73
2022-08-26T20:05:00.145Z,5.77
2022-08-26T20:07:28.379Z,5.80
2022-08-26T20:09:59.575Z,5.73
2022-08-26T20:12:29.263Z,5.10
2022-08-26T20:14:57.917Z,5.73
2022-08-26T20:17:28.417Z,4.63
2022-08-26T20:20:26.716Z,4.63
2022-08-26T20:23:05.325Z,8.10
2022-08-26T20:25:36.517Z,3.90
2022-08-26T20:28:05.207Z,5.50
2022-08-26T20:30:33.489Z,8.53
2022-08-26T20:33:01.614Z,4.53
2022-08-26T20:35:29.829Z,6.23
2022-08-26T20:37:57.955Z,5.70
2022-08-26T20:40:27.911Z,6.70
2022-08-26T20:42:56.369Z,5.23
2022-08-26T20:45:24.619Z,8.90
2022-08-26T20:47:52.894Z,7.30
2022-08-26T20:50:21.285Z,5.80
2022-08-26T20:52:49.560Z,5.53
2022-08-26T20:55:18.567Z,4.73
2022-08-26T20:57:49.523Z,4.43
2022-08-26T21:00:22.570Z,5.37
2022-08-26T21:02:57.487Z,5.47
2022-08-26T21:05:28.769Z,5.77
2022-08-26T21:07:59.501Z,4.73
2022-08-26T21:10:31.471Z,7.90
2022-08-26T21:13:01.461Z,6.43
2022-08-26T21:15:32.858Z,5.90
2022-08-26T21:18:01.532Z,7.00
2022-08-26T21:20:29.826Z,5.83
2022-08-26T21:23:00.634Z,6.27
2022-08-26T21:25:29.008Z,6.03
2022-08-26T21:28:00.909Z,4.63
2022-08-26T21:30:29.493Z,5.67
2022-08-26T21:33:00.671Z,6.73
2022-08-26T21:35:28.966Z,6.20
2022-08-26T21:37:57.158Z,5.70
2022-08-26T21:40:25.650Z,5.27
2022-08-26T21:42:53.870Z,5.77
2022-08-26T21:45:23.704Z,7.27
2022-08-26T21:47:51.981Z,5.83
2022-08-26T21:50:22.913Z,7.97
2022-08-26T21:52:51.117Z,5.53
2022-08-26T21:55:21.357Z,9.53
2022-08-26T21:57:49.538Z,6.70
2022-08-26T22:00:19.488Z,7.73
2022-08-26T22:02:52.135Z,6.80
2022-08-26T22:05:20.374Z,8.10
2022-08-26T22:07:48.596Z,8.30
2022-08-26T22:10:19.165Z,6.57
2022-08-26T22:12:49.497Z,8.20
2022-08-26T22:15:19.834Z,6.10
2022-08-26T22:17:48.022Z,6.33
2022-08-26T22:20:17.792Z,5.10
2022-08-26T22:22:46.218Z,10.40
2022-08-26T22:25:14.678Z,6.90
2022-08-26T22:27:45.473Z,7.63
2022-08-26T22:30:16.688Z,5.20
2022-08-26T22:32:47.593Z,8.90
2022-08-26T22:35:29.323Z,4.73
2022-08-26T22:38:00.474Z,5.37
2022-08-26T22:40:31.447Z,6.73
2022-08-26T22:43:02.435Z,6.63
2022-08-26T22:45:31.843Z,5.53
2022-08-26T22:48:04.649Z,4.73
2022-08-26T22:50:34.253Z,4.07
2022-08-26T22:53:05.858Z,8.33
2022-08-26T22:55:34.230Z,5.60
2022-08-26T22:58:02.440Z,3.63
2022-08-26T23:00:33.385Z,4.90
2022-08-26T23:03:02.845Z,3.90
2022-08-26T23:05:33.113Z,5.43
2022-08-26T23:08:03.995Z,4.87
2022-08-26T23:10:32.927Z,5.47
2022-08-26T23:13:01.740Z,5.23
2022-08-26T23:15:30.288Z,7.43
2022-08-26T23:17:59.124Z,6.00
2022-08-26T23:20:30.378Z,3.27
2022-08-26T23:23:02.817Z,5.50
2022-08-26T23:25:33.948Z,5.97
2022-08-26T23:28:03.193Z,5.80
2022-08-26T23:30:34.444Z,3.70
2022-08-26T23:33:02.885Z,5.67
2022-08-26T23:35:32.341Z,6.07
2022-08-26T23:38:02.579Z,5.00
2022-08-26T23:40:36.294Z,5.07
2022-08-26T23:43:09.471Z,4.90
2022-08-26T23:45:37.836Z,3.23
2022-08-26T23:48:07.615Z,5.77
2022-08-26T23:50:55.651Z,5.17
2022-08-26T23:53:25.235Z,4.50
2022-08-26T23:55:54.242Z,3.77
2022-08-26T23:58:23.137Z,4.73
